Time;durP1;ratioP1;P1;durP2;ratioP2;P2;SDS_P1;SDS_P2;PMS_P1;PMS_P2;Temp;Humidity;BMP_temperature;BMP_pressure;BME280_temperature;BME280_humidity;BME280_pressure;Samples;Min_cycle;Max_cycle;Signal;HPM_P1;HPM_P2
2022/09/15 00:01:06;;;;;;;2.83;2.57;;;20.50;99.90;;;;;;5076057;28;20495;-56
2022/09/15 00:03:34;;;;;;;3.93;2.90;;;20.30;99.90;;;;;;5076201;28;20462;-56
2022/09/15 00:06:02;;;;;;;3.70;3.03;;;20.20;99.90;;;;;;5075709;28;20467;-56
2022/09/15 00:08:29;;;;;;;9.10;3.03;;;20.10;99.90;;;;;;5075987;28;20495;-56
2022/09/15 00:11:03;;;;;;;3.60;2.80;;;19.90;99.90;;;;;;5075573;28;20464;-57
2022/09/15 00:13:31;;;;;;;3.67;3.37;;;19.80;99.90;;;;;;5075288;28;20455;-57
2022/09/15 00:15:58;;;;;;;2.77;2.20;;;20.00;99.90;;;;;;5075552;28;20761;-57
2022/09/15 00:18:26;;;;;;;4.03;2.93;;;19.80;99.90;;;;;;5075913;28;20445;-56
2022/09/15 00:20:53;;;;;;;6.17;3.10;;;19.90;99.90;;;;;;5075281;28;20831;-56
2022/09/15 00:23:21;;;;;;;2.90;2.70;;;20.10;99.90;;;;;;5075436;28;20826;-56
2022/09/15 00:25:50;;;;;;;3.10;2.53;;;20.00;99.90;;;;;;5075453;28;20445;-57
2022/09/15 00:28:19;;;;;;;3.73;2.80;;;20.00;99.90;;;;;;5075455;28;20450;-57
2022/09/15 00:30:49;;;;;;;2.97;2.77;;;20.00;99.90;;;;;;5075245;28;20961;-57
2022/09/15 00:33:17;;;;;;;2.70;2.50;;;20.00;99.90;;;;;;5075561;28;20540;-56
2022/09/15 00:35:48;;;;;;;3.07;2.73;;;20.00;99.90;;;;;;5075265;28;20931;-56
2022/09/15 00:38:16;;;;;;;10.23;3.07;;;20.20;99.90;;;;;;5075491;28;20456;-57
2022/09/15 00:40:45;;;;;;;3.03;2.73;;;20.30;99.90;;;;;;5075138;28;20484;-57
2022/09/15 00:43:13;;;;;;;3.00;2.70;;;20.40;99.90;;;;;;5075331;28;20420;-56
2022/09/15 00:45:41;;;;;;;4.87;2.50;;;20.30;99.90;;;;;;5075366;28;20452;-56
2022/09/15 00:48:12;;;;;;;2.70;2.50;;;20.30;99.90;;;;;;5074786;28;20543;-57
2022/09/15 00:50:41;;;;;;;3.20;2.40;;;20.30;99.90;;;;;;5075336;28;20425;-56
2022/09/15 00:53:12;;;;;;;2.27;2.07;;;20.30;99.90;;;;;;5074913;28;20514;-56
2022/09/15 00:55:42;;;;;;;2.30;2.10;;;20.30;99.90;;;;;;5075070;28;20429;-56
2022/09/15 00:58:13;;;;;;;2.60;2.40;;;20.40;99.90;;;;;;5074994;28;20460;-57
2022/09/15 01:00:45;;;;;;;3.27;2.27;;;20.40;99.90;;;;;;5075050;28;20429;-57
2022/09/15 01:03:12;;;;;;;3.87;2.20;;;20.20;99.90;;;;;;5075051;28;20433;-56
2022/09/15 01:05:43;;;;;;;4.33;2.30;;;20.30;99.90;;;;;;5074585;28;20455;-56
2022/09/15 01:08:23;;;;;;;3.83;2.60;;;20.50;99.90;;;;;;5074877;28;20792;-56
2022/09/15 01:10:50;;;;;;;2.33;2.17;;;20.40;99.90;;;;;;5074368;28;20436;-56
2022/09/15 01:13:18;;;;;;;2.80;2.57;;;20.50;99.90;;;;;;5075322;28;20433;-56
2022/09/15 01:16:03;;;;;;;3.60;2.77;;;20.40;99.90;;;;;;5074388;28;20452;-56
2022/09/15 01:18:42;;;;;;;2.97;2.70;;;20.20;99.90;;;;;;5074736;28;20432;-56
2022/09/15 01:21:21;;;;;;;3.40;2.13;;;20.40;99.90;;;;;;5074085;28;20484;-56
2022/09/15 01:24:18;;;;;;;3.77;2.50;;;20.30;99.90;;;;;;5073537;28;20428;-57
2022/09/15 01:27:02;;;;;;;2.70;2.30;;;20.30;99.90;;;;;;5074499;28;20776;-57
2022/09/15 01:30:00;;;;;;;3.53;2.23;;;20.10;99.90;;;;;;5074438;28;20524;-56
2022/09/15 01:35:26;;;;;;;2.50;2.30;;;20.30;99.90;;;;;;5074386;28;20906;-56
2022/09/15 01:37:58;;;;;;;2.20;2.00;;;20.30;99.90;;;;;;5073962;28;20429;-57
2022/09/15 01:40:30;;;;;;;5.97;2.60;;;20.30;99.90;;;;;;5074302;28;20757;-56
2022/09/15 01:43:00;;;;;;;2.50;2.30;;;20.00;99.90;;;;;;5074331;28;20492;-56
2022/09/15 01:45:44;;;;;;;4.03;2.50;;;19.90;99.90;;;;;;5131642;27;20548;-56
2022/09/15 01:48:12;;;;;;;3.37;2.67;;;20.10;99.90;;;;;;5131853;28;20429;-56
2022/09/15 01:50:43;;;;;;;3.37;2.30;;;20.30;99.90;;;;;;5131660;28;20438;-56
2022/09/15 01:53:15;;;;;;;4.07;2.70;;;20.30;99.90;;;;;;5131698;28;20429;-56
2022/09/15 01:55:47;;;;;;;3.47;2.60;;;20.10;99.90;;;;;;5131388;28;20923;-56
2022/09/15 01:58:14;;;;;;;2.33;2.13;;;20.20;99.90;;;;;;5131434;28;20491;-56
2022/09/15 02:00:47;;;;;;;2.30;2.10;;;20.20;99.90;;;;;;5131441;28;20529;-56
2022/09/15 02:03:21;;;;;;;2.57;2.17;;;20.30;99.90;;;;;;5131136;28;20901;-56
2022/09/15 02:05:52;;;;;;;2.53;2.03;;;20.30;99.90;;;;;;5131480;28;20426;-56
2022/09/15 02:08:26;;;;;;;2.60;2.40;;;20.10;99.90;;;;;;5131515;28;20448;-56
2022/09/15 02:11:03;;;;;;;4.00;2.57;;;19.90;99.90;;;;;;5131315;28;20430;-56
2022/09/15 02:13:39;;;;;;;3.70;3.03;;;19.90;99.90;;;;;;5130874;28;20814;-56
2022/09/15 02:16:18;;;;;;;3.33;2.27;;;19.90;99.90;;;;;;5130907;28;20440;-56
2022/09/15 02:18:56;;;;;;;2.63;2.23;;;20.10;99.90;;;;;;5131064;27;20430;-56
2022/09/15 02:21:30;;;;;;;3.20;2.90;;;20.10;99.90;;;;;;5131101;28;20466;-56
2022/09/15 02:24:02;;;;;;;2.40;2.20;;;20.10;99.90;;;;;;5131136;28;20466;-56
2022/09/15 02:26:34;;;;;;;3.13;2.10;;;20.00;99.90;;;;;;5130756;28;20434;-56
2022/09/15 02:29:07;;;;;;;2.77;2.30;;;20.00;99.90;;;;;;5130771;27;20485;-56
2022/09/15 02:31:39;;;;;;;4.90;2.47;;;19.80;99.90;;;;;;5130760;28;20465;-56
2022/09/15 02:34:11;;;;;;;3.40;2.10;;;19.80;99.90;;;;;;5131043;28;20475;-56
2022/09/15 02:36:39;;;;;;;2.80;2.30;;;19.80;99.90;;;;;;5130686;28;20441;-56
2022/09/15 02:39:11;;;;;;;2.57;2.13;;;19.90;99.90;;;;;;5130451;28;20666;-57
2022/09/15 02:41:40;;;;;;;2.40;2.07;;;19.80;99.90;;;;;;5130386;28;20457;-56
2022/09/15 02:44:09;;;;;;;4.10;2.40;;;19.60;99.90;;;;;;5130483;27;20590;-56
2022/09/15 02:46:38;;;;;;;2.10;1.90;;;19.70;99.90;;;;;;5130550;28;20457;-56
2022/09/15 02:49:05;;;;;;;2.57;2.23;;;19.80;99.90;;;;;;5130303;28;20449;-56
2022/09/15 02:51:32;;;;;;;6.10;2.63;;;19.80;99.90;;;;;;5130612;28;20462;-56
2022/09/15 02:54:00;;;;;;;2.33;1.90;;;19.80;99.90;;;;;;5130230;27;20777;-56
2022/09/15 02:56:27;;;;;;;2.63;1.93;;;19.80;99.90;;;;;;5119335;28;20902;-56
2022/09/15 02:58:54;;;;;;;4.70;2.10;;;19.80;99.90;;;;;;5116840;27;20446;-56
2022/09/15 03:01:28;;;;;;;2.33;2.00;;;19.80;99.90;;;;;;5116385;28;20526;-56
2022/09/15 03:03:57;;;;;;;2.10;1.90;;;19.90;99.90;;;;;;5116603;28;20465;-56
2022/09/15 03:06:26;;;;;;;2.20;2.00;;;19.70;99.90;;;;;;5116539;28;20813;-56
2022/09/15 03:08:57;;;;;;;2.07;1.87;;;19.50;99.90;;;;;;5116713;28;20782;-56
2022/09/15 03:11:26;;;;;;;3.73;2.77;;;19.50;99.90;;;;;;5116487;28;20471;-56
2022/09/15 03:13:54;;;;;;;3.90;2.60;;;19.50;99.90;;;;;;5115965;28;20994;-56
2022/09/15 03:16:21;;;;;;;3.77;2.23;;;19.50;99.90;;;;;;5116458;28;20857;-56
2022/09/15 03:18:48;;;;;;;2.40;2.20;;;19.50;99.90;;;;;;5116093;28;20801;-56
2022/09/15 03:21:17;;;;;;;6.17;2.00;;;19.40;99.90;;;;;;5116180;28;21029;-56
2022/09/15 03:23:45;;;;;;;5.93;2.27;;;19.50;99.90;;;;;;5116187;28;20530;-56
2022/09/15 03:26:12;;;;;;;2.57;1.67;;;19.50;99.90;;;;;;5116353;28;20446;-56
2022/09/15 03:28:40;;;;;;;7.90;1.97;;;19.70;99.90;;;;;;5116162;28;20454;-56
2022/09/15 03:31:09;;;;;;;3.33;1.87;;;19.70;99.90;;;;;;5115703;28;20972;-56
2022/09/15 03:33:36;;;;;;;1.93;1.83;;;19.70;99.90;;;;;;5116231;28;20803;-57
2022/09/15 03:36:05;;;;;;;4.27;2.10;;;20.00;99.90;;;;;;5115980;28;20525;-56
2022/09/15 03:38:34;;;;;;;3.27;2.40;;;20.20;99.90;;;;;;5115936;28;20446;-56
2022/09/15 03:41:03;;;;;;;2.07;1.80;;;20.20;99.90;;;;;;5115639;28;20470;-56
2022/09/15 03:43:31;;;;;;;5.20;2.00;;;19.90;99.90;;;;;;5115603;28;20486;-56
2022/09/15 03:45:59;;;;;;;2.23;1.80;;;20.00;99.90;;;;;;5115482;28;20828;-56
2022/09/15 03:48:28;;;;;;;2.23;2.00;;;20.10;99.90;;;;;;5115406;28;20940;-56
2022/09/15 03:50:55;;;;;;;2.97;1.80;;;20.00;99.90;;;;;;5115829;28;20447;-56
2022/09/15 03:53:22;;;;;;;3.17;2.20;;;19.90;99.90;;;;;;5115732;28;20939;-56
2022/09/15 03:55:50;;;;;;;3.40;1.80;;;19.90;99.90;;;;;;5115700;28;20449;-56
2022/09/15 03:58:18;;;;;;;2.50;2.20;;;19.70;99.90;;;;;;5115346;28;21009;-56
2022/09/15 04:00:46;;;;;;;2.23;1.53;;;19.70;99.90;;;;;;5115474;28;20459;-56
2022/09/15 04:03:13;;;;;;;3.37;2.40;;;19.50;99.90;;;;;;5115484;28;20504;-56
2022/09/15 04:05:40;;;;;;;2.13;2.00;;;19.40;99.90;;;;;;5115454;28;20485;-56
2022/09/15 04:08:13;;;;;;;3.60;2.13;;;19.30;99.90;;;;;;5114362;28;20447;-56
2022/09/15 04:10:40;;;;;;;2.77;2.10;;;19.30;99.90;;;;;;5115095;28;20438;-56
2022/09/15 04:13:09;;;;;;;2.17;1.93;;;19.20;99.90;;;;;;5114961;28;21016;-56
2022/09/15 04:15:36;;;;;;;2.77;1.97;;;19.20;99.90;;;;;;5114993;28;20925;-56
2022/09/15 04:18:04;;;;;;;2.93;1.90;;;19.10;99.90;;;;;;5114839;28;20446;-56
2022/09/15 04:20:31;;;;;;;2.63;2.00;;;19.40;99.90;;;;;;5114866;28;20985;-56
2022/09/15 04:22:59;;;;;;;2.40;2.00;;;19.50;99.90;;;;;;5115118;28;20516;-56
2022/09/15 04:25:26;;;;;;;3.90;2.00;;;19.50;99.90;;;;;;5114921;28;20921;-56
2022/09/15 04:27:54;;;;;;;2.93;2.30;;;19.50;99.90;;;;;;5114616;28;21032;-56
2022/09/15 04:30:22;;;;;;;4.50;2.03;;;19.40;99.90;;;;;;5115035;28;20446;-56
2022/09/15 04:32:50;;;;;;;2.10;1.90;;;19.30;99.90;;;;;;5114786;28;20541;-57
2022/09/15 04:35:17;;;;;;;4.00;2.17;;;19.20;99.90;;;;;;5114973;28;20451;-56
2022/09/15 04:37:44;;;;;;;4.00;2.43;;;19.30;99.90;;;;;;5114619;28;21000;-56
2022/09/15 04:40:11;;;;;;;2.57;1.90;;;19.50;99.90;;;;;;5114715;28;20450;-56
2022/09/15 04:42:38;;;;;;;2.90;2.20;;;19.50;99.90;;;;;;5114283;28;20474;-56
2022/09/15 04:45:07;;;;;;;2.13;1.93;;;19.40;99.90;;;;;;5114225;28;20529;-56
2022/09/15 04:47:35;;;;;;;4.10;2.47;;;19.30;99.90;;;;;;5114368;28;20492;-56
2022/09/15 04:50:02;;;;;;;2.20;2.00;;;19.30;99.90;;;;;;5114526;28;20563;-56
2022/09/15 04:52:29;;;;;;;3.03;1.90;;;19.50;99.90;;;;;;5114210;28;20540;-55
2022/09/15 04:54:56;;;;;;;2.80;2.30;;;19.60;99.90;;;;;;5114145;28;20536;-56
2022/09/15 04:57:23;;;;;;;2.57;1.73;;;19.70;99.90;;;;;;5114427;28;20454;-56
2022/09/15 04:59:50;;;;;;;2.10;1.90;;;19.60;99.90;;;;;;5114172;28;20446;-56
2022/09/15 05:02:17;;;;;;;3.37;2.00;;;19.60;99.90;;;;;;5114125;28;20462;-56
2022/09/15 05:04:48;;;;;;;3.17;2.00;;;19.80;99.90;;;;;;5114225;28;20478;-56
2022/09/15 05:07:15;;;;;;;2.43;1.90;;;19.60;99.90;;;;;;5114415;28;20427;-56
2022/09/15 05:09:42;;;;;;;1.83;1.63;;;19.50;99.90;;;;;;5114290;28;20458;-56
2022/09/15 05:12:10;;;;;;;3.10;2.00;;;19.30;99.90;;;;;;5113783;28;20498;-56
2022/09/15 05:14:37;;;;;;;2.20;2.00;;;19.30;99.90;;;;;;5113900;28;20940;-56
2022/09/15 05:17:04;;;;;;;2.80;2.00;;;19.40;99.90;;;;;;5114176;28;20448;-56
2022/09/15 05:19:31;;;;;;;1.60;1.50;;;19.50;99.90;;;;;;5113555;28;20438;-56
2022/09/15 05:22:00;;;;;;;4.23;1.83;;;19.50;99.90;;;;;;5113660;28;20459;-56
2022/09/15 05:24:27;;;;;;;2.67;1.90;;;19.50;99.90;;;;;;5113535;28;20457;-56
2022/09/15 05:26:54;;;;;;;2.23;1.83;;;19.40;99.90;;;;;;5113547;28;20477;-57
2022/09/15 05:29:21;;;;;;;4.40;2.60;;;19.40;99.90;;;;;;5113610;28;20447;-56
2022/09/15 05:31:48;;;;;;;2.07;1.87;;;19.50;99.90;;;;;;5113183;28;20472;-56
2022/09/15 05:34:15;;;;;;;2.40;2.10;;;19.50;99.90;;;;;;5113260;28;20472;-56
2022/09/15 05:36:42;;;;;;;3.30;1.70;;;19.50;99.90;;;;;;5113666;28;20442;-56
2022/09/15 05:39:11;;;;;;;2.10;1.90;;;19.50;99.90;;;;;;5113674;28;20447;-56
2022/09/15 05:41:38;;;;;;;2.80;2.10;;;19.40;99.90;;;;;;5113273;28;20553;-56
2022/09/15 05:44:05;;;;;;;2.03;1.80;;;19.60;99.90;;;;;;5113238;28;20474;-56
2022/09/15 05:46:33;;;;;;;3.23;2.27;;;19.80;99.90;;;;;;5112957;28;20559;-56
2022/09/15 05:49:00;;;;;;;2.03;1.70;;;19.70;99.90;;;;;;5113099;28;21004;-56
2022/09/15 05:51:28;;;;;;;2.23;2.03;;;19.80;99.90;;;;;;5113011;28;20557;-56
2022/09/15 05:53:56;;;;;;;2.50;2.10;;;19.90;99.90;;;;;;5113502;28;20446;-56
2022/09/15 05:56:25;;;;;;;2.13;1.67;;;19.80;99.90;;;;;;5113466;28;20474;-56
2022/09/15 05:58:52;;;;;;;2.90;2.10;;;19.80;99.90;;;;;;5113251;28;20914;-57
2022/09/15 06:01:21;;;;;;;2.10;1.90;;;19.90;99.90;;;;;;5113155;28;20545;-56
2022/09/15 06:03:48;;;;;;;2.10;1.80;;;20.00;99.90;;;;;;5113537;28;20450;-56
2022/09/15 06:06:16;;;;;;;1.73;1.50;;;19.90;99.90;;;;;;5113340;28;20495;-57
2022/09/15 06:08:45;;;;;;;5.53;2.10;;;19.90;99.90;;;;;;5113257;28;20553;-57
2022/09/15 06:11:15;;;;;;;1.97;1.50;;;19.80;99.90;;;;;;5112932;28;20549;-56
2022/09/15 06:13:44;;;;;;;2.87;1.70;;;19.70;99.90;;;;;;5112684;28;20541;-57
2022/09/15 06:16:13;;;;;;;1.83;1.67;;;19.70;99.90;;;;;;5112899;28;20921;-56
2022/09/15 06:18:41;;;;;;;2.90;1.87;;;19.80;99.90;;;;;;5113244;28;20456;-56
2022/09/15 06:21:10;;;;;;;2.30;1.90;;;19.80;99.90;;;;;;5113046;28;20467;-57
2022/09/15 06:23:38;;;;;;;1.77;1.50;;;19.80;99.90;;;;;;5113222;28;20473;-57
2022/09/15 06:26:07;;;;;;;2.40;1.50;;;19.90;99.90;;;;;;5112828;28;20478;-56
2022/09/15 06:28:34;;;;;;;1.80;1.70;;;20.20;99.90;;;;;;5113313;28;20447;-57
2022/09/15 06:31:03;;;;;;;2.97;1.73;;;19.90;99.90;;;;;;5114460;28;21127;-57
2022/09/15 06:33:30;;;;;;;2.43;1.70;;;19.80;99.90;;;;;;5116778;28;20537;-56
2022/09/15 06:35:59;;;;;;;2.90;2.00;;;19.60;99.90;;;;;;5117074;28;20445;-57
2022/09/15 06:38:26;;;;;;;1.87;1.67;;;19.40;99.90;;;;;;5116576;28;20473;-56
2022/09/15 06:40:57;;;;;;;2.07;1.87;;;19.40;99.90;;;;;;5116767;28;20442;-56
2022/09/15 06:43:25;;;;;;;3.87;2.30;;;19.30;99.90;;;;;;5116816;28;20541;-55
2022/09/15 06:45:53;;;;;;;2.40;1.97;;;19.30;99.90;;;;;;5116403;28;20549;-56
2022/09/15 06:48:22;;;;;;;2.87;2.13;;;19.40;99.90;;;;;;5116661;28;20503;-56
2022/09/15 06:50:54;;;;;;;4.83;1.93;;;19.20;99.90;;;;;;5116925;28;20542;-56
2022/09/15 06:53:22;;;;;;;2.13;1.70;;;19.20;99.90;;;;;;5116902;28;20431;-55
2022/09/15 06:55:49;;;;;;;2.60;1.90;;;19.20;99.90;;;;;;5116120;28;20490;-56
2022/09/15 06:58:16;;;;;;;3.20;2.20;;;19.00;99.90;;;;;;5116664;28;20508;-56
2022/09/15 07:00:43;;;;;;;3.57;1.77;;;18.90;99.90;;;;;;5116214;28;20902;-56
2022/09/15 07:03:11;;;;;;;5.10;2.40;;;18.90;99.90;;;;;;5116051;28;20446;-56
2022/09/15 07:05:39;;;;;;;5.50;2.57;;;18.90;99.90;;;;;;5115629;28;20565;-56
2022/09/15 07:08:06;;;;;;;5.47;2.40;;;18.80;99.90;;;;;;5116132;28;20477;-56
2022/09/15 07:10:34;;;;;;;2.40;2.20;;;19.00;99.90;;;;;;5116181;28;20447;-57
2022/09/15 07:13:02;;;;;;;2.70;2.00;;;18.90;99.90;;;;;;5115937;28;21000;-56
2022/09/15 07:15:30;;;;;;;4.83;2.10;;;18.80;99.90;;;;;;5116113;27;20475;-56
2022/09/15 07:17:58;;;;;;;3.10;2.10;;;18.90;99.90;;;;;;5115675;28;20546;-56
2022/09/15 07:20:26;;;;;;;2.13;1.90;;;18.90;99.90;;;;;;5115731;28;20937;-56
2022/09/15 07:22:55;;;;;;;3.83;2.10;;;19.10;99.90;;;;;;5116058;28;20871;-57
2022/09/15 07:25:22;;;;;;;2.20;2.00;;;19.00;99.90;;;;;;5115807;28;20577;-56
2022/09/15 07:27:50;;;;;;;3.40;2.10;;;18.80;99.90;;;;;;5115507;28;20497;-56
2022/09/15 07:30:17;;;;;;;3.03;1.97;;;18.70;99.90;;;;;;5115565;28;20447;-56
2022/09/15 07:32:44;;;;;;;2.83;1.90;;;18.60;99.90;;;;;;5115495;28;20545;-56
2022/09/15 07:35:11;;;;;;;2.30;2.10;;;18.60;99.90;;;;;;5115314;28;20447;-56
2022/09/15 07:37:38;;;;;;;2.40;2.20;;;18.70;99.90;;;;;;5115498;28;20486;-57
2022/09/15 07:40:25;;;;;;;3.40;2.03;;;18.80;99.90;;;;;;5115482;28;20533;-56
2022/09/15 07:42:53;;;;;;;2.33;1.90;;;18.80;99.90;;;;;;5115384;28;20500;-56
2022/09/15 07:45:20;;;;;;;2.30;1.97;;;18.70;99.90;;;;;;5114951;28;21006;-57
2022/09/15 07:47:47;;;;;;;3.10;2.33;;;18.90;99.90;;;;;;5115475;28;20541;-57
2022/09/15 07:50:14;;;;;;;4.67;2.03;;;18.80;99.90;;;;;;5115618;28;20450;-57
2022/09/15 07:52:42;;;;;;;3.07;2.23;;;18.70;99.90;;;;;;5114863;28;20549;-56
2022/09/15 07:55:10;;;;;;;3.67;1.70;;;18.80;99.90;;;;;;5115066;28;20442;-56
2022/09/15 07:57:37;;;;;;;5.23;1.60;;;18.80;99.90;;;;;;5115381;28;20545;-56
2022/09/15 08:00:06;;;;;;;3.90;2.90;;;18.80;99.90;;;;;;5115042;28;20447;-56
2022/09/15 08:02:33;;;;;;;6.63;2.40;;;19.00;99.90;;;;;;5115112;28;20462;-57
2022/09/15 08:05:00;;;;;;;2.03;1.80;;;18.90;99.90;;;;;;5115148;28;20482;-56
2022/09/15 08:07:27;;;;;;;3.23;2.67;;;19.00;99.90;;;;;;5115075;28;20482;-57
2022/09/15 08:09:54;;;;;;;3.27;2.80;;;19.00;99.90;;;;;;5114790;28;20450;-56
2022/09/15 08:12:23;;;;;;;4.00;2.40;;;18.80;99.90;;;;;;5115235;28;20841;-57
2022/09/15 08:14:50;;;;;;;3.20;1.93;;;18.90;99.90;;;;;;5115021;28;20529;-56
2022/09/15 08:17:18;;;;;;;2.70;1.73;;;18.90;99.90;;;;;;5114772;28;20435;-57
2022/09/15 08:19:46;;;;;;;2.40;1.70;;;19.10;99.90;;;;;;5114843;28;20503;-57
2022/09/15 08:22:14;;;;;;;2.17;1.90;;;19.20;99.90;;;;;;5114568;28;20498;-56
2022/09/15 08:24:41;;;;;;;3.23;1.93;;;19.30;99.90;;;;;;5114497;28;20459;-56
2022/09/15 08:27:09;;;;;;;2.47;1.73;;;19.50;99.90;;;;;;5114371;28;20482;-56
2022/09/15 08:29:38;;;;;;;2.13;1.93;;;19.50;99.90;;;;;;5114806;28;20537;-56
2022/09/15 08:32:05;;;;;;;3.50;2.20;;;19.50;99.90;;;;;;5114595;28;20467;-56
2022/09/15 08:34:32;;;;;;;2.10;1.70;;;19.50;99.90;;;;;;5114550;28;20442;-56
2022/09/15 08:36:59;;;;;;;2.60;1.87;;;19.30;99.90;;;;;;5114740;28;20525;-56
2022/09/15 08:39:26;;;;;;;3.67;2.07;;;19.00;99.90;;;;;;5114539;28;20629;-56
2022/09/15 08:41:54;;;;;;;2.00;1.80;;;19.10;99.90;;;;;;5114076;28;21033;-56
2022/09/15 08:44:36;;;;;;;3.10;1.90;;;19.30;99.90;;;;;;5114307;28;20478;-57
2022/09/15 08:47:10;;;;;;;2.70;1.80;;;19.50;99.90;;;;;;5114470;28;20511;-56
2022/09/15 08:49:44;;;;;;;2.83;1.67;;;19.30;99.90;;;;;;5114364;28;20442;-56
2022/09/15 08:52:20;;;;;;;3.47;1.70;;;19.20;99.90;;;;;;5113963;28;20466;-56
2022/09/15 08:54:48;;;;;;;4.43;1.97;;;19.30;99.90;;;;;;5113673;28;20433;-57
2022/09/15 08:57:21;;;;;;;2.80;1.73;;;19.60;99.90;;;;;;5113963;28;20439;-57
2022/09/15 08:59:49;;;;;;;3.20;1.97;;;19.60;99.90;;;;;;5114071;28;20795;-56
2022/09/15 09:02:42;;;;;;;2.53;1.50;;;19.80;99.90;;;;;;5113703;28;20466;-56
2022/09/15 09:05:21;;;;;;;1.83;1.40;;;19.70;99.90;;;;;;5113038;28;20506;-57
2022/09/15 09:08:06;;;;;;;2.40;2.20;;;19.80;99.90;;;;;;5113133;28;20527;-57
2022/09/15 09:10:45;;;;;;;3.70;2.17;;;19.70;99.90;;;;;;5113630;28;20459;-56
2022/09/15 09:13:23;;;;;;;2.87;1.80;;;19.90;99.90;;;;;;5113625;28;20493;-57
2022/09/15 09:16:08;;;;;;;2.90;1.80;;;20.00;99.90;;;;;;5113064;28;20430;-58
2022/09/15 09:19:00;;;;;;;2.47;2.00;;;19.90;99.90;;;;;;5112948;28;20484;-57
2022/09/15 09:21:31;;;;;;;2.37;1.50;;;19.90;99.90;;;;;;5113223;28;20553;-57
2022/09/15 09:24:04;;;;;;;2.87;1.97;;;19.70;99.90;;;;;;5113266;28;20905;-57
2022/09/15 09:26:34;;;;;;;1.83;1.73;;;19.90;99.90;;;;;;5113535;28;20466;-57
2022/09/15 09:29:06;;;;;;;4.33;1.60;;;20.00;99.90;;;;;;5113249;28;20932;-57
2022/09/15 09:31:35;;;;;;;1.70;1.53;;;20.20;99.90;;;;;;5112788;28;21006;-57
2022/09/15 09:34:14;;;;;;;1.73;1.60;;;20.30;99.90;;;;;;5112771;28;20959;-57
2022/09/15 09:36:42;;;;;;;1.83;1.63;;;20.40;99.90;;;;;;5113431;28;20441;-58
2022/09/15 09:39:13;;;;;;;1.97;1.13;;;20.30;99.90;;;;;;5112951;28;20450;-56
2022/09/15 09:41:42;;;;;;;1.73;1.10;;;20.20;99.90;;;;;;5112428;28;20493;-57
2022/09/15 09:44:13;;;;;;;2.60;1.33;;;20.30;99.90;;;;;;5112718;28;20478;-56
2022/09/15 09:46:41;;;;;;;1.57;1.47;;;20.00;99.90;;;;;;5112894;28;20999;-57
2022/09/15 09:49:19;;;;;;;1.30;1.20;;;20.00;99.90;;;;;;5112755;28;20541;-57
2022/09/15 09:51:51;;;;;;;1.63;1.30;;;20.10;99.90;;;;;;5113033;28;20470;-57
2022/09/15 09:54:19;;;;;;;2.90;1.67;;;20.00;99.90;;;;;;5112548;28;20543;-57
2022/09/15 09:56:47;;;;;;;1.73;1.63;;;19.90;99.90;;;;;;5112905;28;20442;-57
2022/09/15 09:59:34;;;;;;;2.57;1.90;;;19.50;99.90;;;;;;5112797;28;20534;-56
2022/09/15 10:02:23;;;;;;;1.57;1.37;;;19.20;99.90;;;;;;5112949;28;20470;-57
2022/09/15 10:04:54;;;;;;;2.00;1.30;;;19.30;99.90;;;;;;5107305;28;20945;-54
2022/09/15 10:07:23;;;;;;;3.10;2.33;;;19.00;99.90;;;;;;5116294;28;20477;-57
2022/09/15 10:09:55;;;;;;;2.63;1.73;;;18.90;99.90;;;;;;5116567;28;20446;-56
2022/09/15 10:12:26;;;;;;;2.43;1.70;;;18.90;99.90;;;;;;5116886;28;20813;-57
2022/09/15 10:14:56;;;;;;;2.40;1.20;;;18.70;99.90;;;;;;5116835;28;20464;-57
2022/09/15 10:17:27;;;;;;;2.53;1.50;;;18.80;99.90;;;;;;5116820;28;20449;-57
2022/09/15 10:19:57;;;;;;;1.70;1.30;;;18.80;99.90;;;;;;5116373;28;20415;-56
2022/09/15 10:22:28;;;;;;;2.47;1.50;;;18.70;99.90;;;;;;5116780;28;20470;-56
2022/09/15 10:24:55;;;;;;;1.60;1.40;;;18.60;99.90;;;;;;5116347;28;20431;-57
2022/09/15 10:27:31;;;;;;;1.30;1.10;;;18.50;99.90;;;;;;5116548;28;20482;-57
2022/09/15 10:30:15;;;;;;;1.40;1.20;;;18.50;99.90;;;;;;5116640;28;20457;-57
2022/09/15 10:32:43;;;;;;;2.97;1.53;;;18.50;99.90;;;;;;5116464;28;20481;-56
2022/09/15 10:35:13;;;;;;;2.20;1.30;;;18.30;99.90;;;;;;5116714;28;20533;-56
2022/09/15 10:37:59;;;;;;;2.00;1.30;;;18.10;99.90;;;;;;5116372;28;20423;-57
2022/09/15 10:40:38;;;;;;;1.90;1.37;;;18.30;99.90;;;;;;5116465;28;20510;-57
2022/09/15 10:43:33;;;;;;;2.83;1.40;;;18.80;99.90;;;;;;5116291;28;20454;-55
2022/09/15 10:46:04;;;;;;;1.50;1.40;;;19.10;99.90;;;;;;5116095;28;20418;-56
2022/09/15 10:48:52;;;;;;;2.47;2.27;;;18.60;99.90;;;;;;5116422;28;20517;-56
2022/09/15 10:51:36;;;;;;;1.77;1.40;;;18.90;99.90;;;;;;5116564;28;20545;-56
2022/09/15 10:54:26;;;;;;;4.97;1.80;;;18.60;99.90;;;;;;5116242;28;20909;-57
2022/09/15 10:57:01;;;;;;;2.37;1.50;;;18.60;99.90;;;;;;5116219;28;20459;-56
2022/09/15 10:59:41;;;;;;;2.20;2.00;;;18.50;99.90;;;;;;5116135;28;20422;-58
2022/09/15 11:02:44;;;;;;;2.77;2.40;;;18.50;99.90;;;;;;5115885;28;20482;-58
2022/09/15 11:05:27;;;;;;;2.77;2.57;;;18.30;99.90;;;;;;5116194;28;20446;-58
2022/09/15 11:08:25;;;;;;;6.37;4.07;;;18.00;99.90;;;;;;5115698;28;20458;-58
2022/09/15 11:10:59;;;;;;;4.23;2.47;;;17.80;99.90;;;;;;5115928;28;20855;-56
2022/09/15 11:13:35;;;;;;;4.27;3.23;;;17.90;99.90;;;;;;5116275;28;20460;-56
2022/09/15 11:16:10;;;;;;;4.00;3.20;;;18.00;99.90;;;;;;5115468;28;20426;-56
2022/09/15 11:18:53;;;;;;;3.33;3.03;;;17.60;99.90;;;;;;5115449;28;20426;-56
2022/09/15 11:21:28;;;;;;;3.60;3.30;;;17.60;99.90;;;;;;5115253;28;20494;-56
2022/09/15 11:24:35;;;;;;;3.23;2.80;;;18.00;99.90;;;;;;5115543;28;20510;-57
2022/09/15 11:27:07;;;;;;;2.93;2.60;;;18.10;99.90;;;;;;5108619;28;21034;-56
2022/09/15 11:30:00;;;;;;;4.33;2.70;;;18.30;99.90;;;;;;5115775;28;20434;-56
2022/09/15 11:32:32;;;;;;;3.40;3.13;;;18.40;99.90;;;;;;5115494;28;20463;-57
2022/09/15 11:35:08;;;;;;;3.20;2.90;;;18.30;99.90;;;;;;5115795;28;20433;-56
2022/09/15 11:37:39;;;;;;;5.50;3.50;;;17.80;99.90;;;;;;5115388;28;20847;-56
2022/09/15 11:40:18;;;;;;;6.00;3.10;;;18.10;99.90;;;;;;5115037;28;20424;-56
2022/09/15 11:42:52;;;;;;;3.20;2.90;;;18.10;99.90;;;;;;5115089;28;20572;-56
2022/09/15 11:45:24;;;;;;;3.13;2.93;;;18.20;99.90;;;;;;5114789;28;20565;-56
2022/09/15 11:47:57;;;;;;;6.03;3.20;;;18.20;99.90;;;;;;5115439;28;20501;-56
2022/09/15 11:50:29;;;;;;;3.40;2.43;;;18.30;99.90;;;;;;5115389;28;20426;-56
2022/09/15 11:53:01;;;;;;;3.67;3.40;;;17.90;99.90;;;;;;5114389;28;20545;-56
2022/09/15 11:55:37;;;;;;;8.27;3.37;;;17.90;99.90;;;;;;5114497;28;20431;-56
2022/09/15 11:58:18;;;;;;;4.90;3.47;;;17.30;99.90;;;;;;5114716;28;20427;-56
2022/09/15 12:00:52;;;;;;;3.70;3.30;;;17.70;99.90;;;;;;5115029;28;20441;-56
2022/09/15 12:03:24;;;;;;;4.20;3.50;;;17.40;99.90;;;;;;5114747;28;20426;-56
2022/09/15 12:05:56;;;;;;;3.63;3.30;;;17.40;99.90;;;;;;5114775;28;20444;-56
2022/09/15 12:08:31;;;;;;;4.93;3.20;;;17.10;99.90;;;;;;5114781;28;20470;-56
2022/09/15 12:11:03;;;;;;;3.87;3.47;;;17.10;99.90;;;;;;5114830;28;20488;-56
2022/09/15 12:13:31;;;;;;;3.80;3.50;;;17.30;99.90;;;;;;5115028;28;20459;-57
2022/09/15 12:16:00;;;;;;;5.60;4.00;;;17.10;99.90;;;;;;5114489;28;20449;-57
2022/09/15 12:18:33;;;;;;;5.13;3.90;;;16.90;99.90;;;;;;5114221;28;20545;-56
2022/09/15 12:21:05;;;;;;;3.83;3.43;;;16.80;99.90;;;;;;5114532;28;20471;-56
2022/09/15 12:23:38;;;;;;;4.43;3.10;;;16.80;99.90;;;;;;5114696;28;20514;-56
2022/09/15 12:26:16;;;;;;;4.03;3.50;;;17.30;99.90;;;;;;5114314;28;20897;-57
2022/09/15 12:28:56;;;;;;;3.27;2.97;;;17.70;99.90;;;;;;5113487;28;20467;-57
2022/09/15 12:31:39;;;;;;;4.90;3.77;;;18.00;99.90;;;;;;5114668;28;20466;-57
2022/09/15 12:34:34;;;;;;;5.10;3.43;;;17.80;99.90;;;;;;5114145;28;20443;-56
2022/09/15 12:37:11;;;;;;;4.30;3.47;;;18.10;99.90;;;;;;5114456;28;20430;-56
2022/09/15 12:39:41;;;;;;;4.17;3.77;;;18.40;99.90;;;;;;5114270;28;20450;-56
2022/09/15 12:42:19;;;;;;;4.80;3.77;;;18.50;99.90;;;;;;5114049;28;20466;-56
2022/09/15 12:44:50;;;;;;;3.67;3.30;;;18.30;99.90;;;;;;5113638;28;20485;-56
2022/09/15 12:47:33;;;;;;;4.63;3.50;;;18.30;99.90;;;;;;5113966;28;20473;-56
2022/09/15 12:50:07;;;;;;;4.30;3.33;;;18.20;99.90;;;;;;5113925;28;20434;-56
2022/09/15 12:52:44;;;;;;;5.57;3.37;;;18.60;99.90;;;;;;5113633;28;20469;-56
2022/09/15 12:55:19;;;;;;;4.73;4.33;;;18.80;99.90;;;;;;5113218;28;20426;-56
2022/09/15 12:57:54;;;;;;;3.33;3.03;;;18.60;99.90;;;;;;5113157;28;20426;-56
2022/09/15 13:00:36;;;;;;;9.60;3.70;;;18.30;99.90;;;;;;5113595;28;20445;-56
2022/09/15 13:03:06;;;;;;;4.50;4.03;;;18.20;99.90;;;;;;5113179;28;20431;-56
2022/09/15 13:06:15;;;;;;;4.77;4.30;;;18.00;99.90;;;;;;5113458;28;20937;-56
2022/09/15 13:08:46;;;;;;;6.03;4.30;;;18.10;99.90;;;;;;5113269;28;20479;-56
2022/09/15 13:11:17;;;;;;;3.83;3.33;;;18.00;99.90;;;;;;5113371;28;20485;-56
2022/09/15 13:13:50;;;;;;;4.43;3.90;;;17.90;99.90;;;;;;5113055;28;20460;-56